sensor_id;sensor_type;location;lat;lon;timestamp;pressure;altitude;pressure_sealevel;temperature;humidity
77171;BME280;66144;50.020;14.422;2023-03-03T00:00:43;99191.03;;;0.34;65.46
77171;BME280;66144;50.020;14.422;2023-03-03T00:03:10;99190.41;;;0.32;64.89
77171;BME280;66144;50.020;14.422;2023-03-03T00:05:36;99192.81;;;0.33;65.74
77171;BME280;66144;50.020;14.422;2023-03-03T00:08:02;99201.47;;;0.32;66.16
77171;BME280;66144;50.020;14.422;2023-03-03T00:10:28;99192.03;;;0.25;65.90
77171;BME280;66144;50.020;14.422;2023-03-03T00:12:53;99193.97;;;0.23;66.11
77171;BME280;66144;50.020;14.422;2023-03-03T00:15:21;99194.44;;;0.26;66.47
77171;BME280;66144;50.020;14.422;2023-03-03T00:17:47;99188.50;;;0.26;65.59
77171;BME280;66144;50.020;14.422;2023-03-03T00:20:30;99192.38;;;0.22;65.54
77171;BME280;66144;50.020;14.422;2023-03-03T00:23:26;99194.94;;;0.22;65.62
77171;BME280;66144;50.020;14.422;2023-03-03T00:25:49;99189.53;;;0.17;66.39
77171;BME280;66144;50.020;14.422;2023-03-03T00:28:30;99199.34;;;0.13;66.60
77171;BME280;66144;50.020;14.422;2023-03-03T00:30:58;99191.81;;;0.12;67.19
77171;BME280;66144;50.020;14.422;2023-03-03T00:33:25;99189.56;;;0.09;66.72
77171;BME280;66144;50.020;14.422;2023-03-03T00:35:58;99187.78;;;0.09;66.37
77171;BME280;66144;50.020;14.422;2023-03-03T00:38:33;99185.41;;;0.08;66.05
77171;BME280;66144;50.020;14.422;2023-03-03T00:41:00;99197.59;;;0.06;66.68
77171;BME280;66144;50.020;14.422;2023-03-03T00:43:34;99196.97;;;0.04;67.03
77171;BME280;66144;50.020;14.422;2023-03-03T00:46:00;99197.13;;;0.02;66.76
77171;BME280;66144;50.020;14.422;2023-03-03T00:48:28;99196.16;;;0.03;66.75
77171;BME280;66144;50.020;14.422;2023-03-03T00:50:56;99199.09;;;0.00;65.93
77171;BME280;66144;50.020;14.422;2023-03-03T00:53:24;99189.78;;;-0.01;66.28
77171;BME280;66144;50.020;14.422;2023-03-03T00:55:51;99197.66;;;-0.03;67.06
77171;BME280;66144;50.020;14.422;2023-03-03T00:58:17;99198.94;;;-0.07;66.84
77171;BME280;66144;50.020;14.422;2023-03-03T01:00:47;99185.94;;;-0.05;67.41
77171;BME280;66144;50.020;14.422;2023-03-03T01:03:21;99192.84;;;-0.06;67.43
77171;BME280;66144;50.020;14.422;2023-03-03T01:05:47;99181.63;;;-0.05;67.37
77171;BME280;66144;50.020;14.422;2023-03-03T01:08:13;99181.63;;;-0.13;67.26
77171;BME280;66144;50.020;14.422;2023-03-03T01:10:45;99178.75;;;-0.10;66.73
77171;BME280;66144;50.020;14.422;2023-03-03T01:13:15;99179.06;;;-0.13;67.44
77171;BME280;66144;50.020;14.422;2023-03-03T01:15:41;99185.00;;;-0.12;67.16
77171;BME280;66144;50.020;14.422;2023-03-03T01:18:08;99184.69;;;-0.17;67.22
77171;BME280;66144;50.020;14.422;2023-03-03T01:20:34;99177.63;;;-0.15;67.26
77171;BME280;66144;50.020;14.422;2023-03-03T01:22:59;99179.56;;;-0.17;68.33
77171;BME280;66144;50.020;14.422;2023-03-03T01:25:25;99171.88;;;-0.17;67.59
77171;BME280;66144;50.020;14.422;2023-03-03T01:27:51;99170.63;;;-0.21;67.88
77171;BME280;66144;50.020;14.422;2023-03-03T01:30:16;99169.66;;;-0.20;68.34
77171;BME280;66144;50.020;14.422;2023-03-03T01:32:42;99167.09;;;-0.20;67.61
77171;BME280;66144;50.020;14.422;2023-03-03T01:35:07;99167.59;;;-0.25;68.11
77171;BME280;66144;50.020;14.422;2023-03-03T01:37:34;99160.69;;;-0.24;67.83
77171;BME280;66144;50.020;14.422;2023-03-03T01:40:00;99161.47;;;-0.24;68.51
77171;BME280;66144;50.020;14.422;2023-03-03T01:42:26;99167.75;;;-0.26;68.30
77171;BME280;66144;50.020;14.422;2023-03-03T01:45:17;99166.94;;;-0.27;67.74
77171;BME280;66144;50.020;14.422;2023-03-03T01:51:01;99167.28;;;-0.30;68.65
77171;BME280;66144;50.020;14.422;2023-03-03T01:53:33;99164.88;;;-0.31;68.28
77171;BME280;66144;50.020;14.422;2023-03-03T01:56:01;99158.31;;;-0.34;68.56
77171;BME280;66144;50.020;14.422;2023-03-03T01:58:32;99165.66;;;-0.31;68.83
77171;BME280;66144;50.020;14.422;2023-03-03T02:01:03;99163.28;;;-0.32;68.23
77171;BME280;66144;50.020;14.422;2023-03-03T02:03:30;99166.00;;;-0.34;68.72
77171;BME280;66144;50.020;14.422;2023-03-03T02:05:59;99162.97;;;-0.38;68.51
77171;BME280;66144;50.020;14.422;2023-03-03T02:08:30;99166.69;;;-0.40;68.16
77171;BME280;66144;50.020;14.422;2023-03-03T02:11:01;99161.56;;;-0.40;68.44
77171;BME280;66144;50.020;14.422;2023-03-03T02:13:27;99156.59;;;-0.42;67.71
77171;BME280;66144;50.020;14.422;2023-03-03T02:15:53;99158.34;;;-0.42;68.74
77171;BME280;66144;50.020;14.422;2023-03-03T02:18:20;99163.81;;;-0.45;68.89
77171;BME280;66144;50.020;14.422;2023-03-03T02:21:09;99154.66;;;-0.48;68.26
77171;BME280;66144;50.020;14.422;2023-03-03T02:26:09;99147.47;;;-0.52;69.00
77171;BME280;66144;50.020;14.422;2023-03-03T02:28:39;99153.56;;;-0.53;69.27
77171;BME280;66144;50.020;14.422;2023-03-03T02:31:07;99154.53;;;-0.54;68.43
77171;BME280;66144;50.020;14.422;2023-03-03T02:33:37;99155.84;;;-0.58;68.96
77171;BME280;66144;50.020;14.422;2023-03-03T02:36:03;99148.94;;;-0.58;68.72
77171;BME280;66144;50.020;14.422;2023-03-03T02:38:33;99144.59;;;-0.57;68.77
77171;BME280;66144;50.020;14.422;2023-03-03T02:41:25;99148.16;;;-0.58;68.56
77171;BME280;66144;50.020;14.422;2023-03-03T02:44:07;99151.66;;;-0.59;69.08
77171;BME280;66144;50.020;14.422;2023-03-03T02:46:35;99149.09;;;-0.59;68.94
77171;BME280;66144;50.020;14.422;2023-03-03T02:49:02;99159.53;;;-0.61;69.42
77171;BME280;66144;50.020;14.422;2023-03-03T02:51:29;99156.81;;;-0.59;69.14
77171;BME280;66144;50.020;14.422;2023-03-03T02:53:54;99160.78;;;-0.57;69.15
77171;BME280;66144;50.020;14.422;2023-03-03T02:56:20;99163.34;;;-0.57;68.81
77171;BME280;66144;50.020;14.422;2023-03-03T02:58:46;99164.94;;;-0.56;69.42
77171;BME280;66144;50.020;14.422;2023-03-03T03:01:11;99169.47;;;-0.58;69.85
77171;BME280;66144;50.020;14.422;2023-03-03T03:03:37;99163.81;;;-0.53;69.47
77171;BME280;66144;50.020;14.422;2023-03-03T03:06:03;99170.72;;;-0.54;69.25
77171;BME280;66144;50.020;14.422;2023-03-03T03:08:28;99170.72;;;-0.54;69.56
77171;BME280;66144;50.020;14.422;2023-03-03T03:10:53;99173.13;;;-0.52;69.63
77171;BME280;66144;50.020;14.422;2023-03-03T03:13:21;99176.47;;;-0.52;69.29
77171;BME280;66144;50.020;14.422;2023-03-03T03:15:46;99175.84;;;-0.54;69.03
77171;BME280;66144;50.020;14.422;2023-03-03T03:18:13;99163.97;;;-0.55;68.61
77171;BME280;66144;50.020;14.422;2023-03-03T03:20:39;99175.84;;;-0.54;69.07
77171;BME280;66144;50.020;14.422;2023-03-03T03:23:06;99170.72;;;-0.54;68.71
77171;BME280;66144;50.020;14.422;2023-03-03T03:25:32;99169.09;;;-0.55;69.18
77171;BME280;66144;50.020;14.422;2023-03-03T03:27:57;99171.84;;;-0.56;69.15
77171;BME280;66144;50.020;14.422;2023-03-03T03:30:23;99165.09;;;-0.57;69.09
77171;BME280;66144;50.020;14.422;2023-03-03T03:32:48;99166.59;;;-0.63;69.16
77171;BME280;66144;50.020;14.422;2023-03-03T03:35:14;99160.66;;;-0.63;69.57
77171;BME280;66144;50.020;14.422;2023-03-03T03:37:41;99159.38;;;-0.67;69.65
77171;BME280;66144;50.020;14.422;2023-03-03T03:40:07;99162.25;;;-0.71;69.21
77171;BME280;66144;50.020;14.422;2023-03-03T03:42:33;99158.41;;;-0.75;69.77
77171;BME280;66144;50.020;14.422;2023-03-03T03:44:58;99165.47;;;-0.77;69.51
77171;BME280;66144;50.020;14.422;2023-03-03T03:47:23;99166.47;;;-0.78;69.80
77171;BME280;66144;50.020;14.422;2023-03-03T03:49:49;99161.34;;;-0.78;69.54
77171;BME280;66144;50.020;14.422;2023-03-03T03:52:14;99154.78;;;-0.80;69.38
77171;BME280;66144;50.020;14.422;2023-03-03T03:54:40;99149.00;;;-0.82;69.63
77171;BME280;66144;50.020;14.422;2023-03-03T03:57:05;99148.84;;;-0.89;69.78
77171;BME280;66144;50.020;14.422;2023-03-03T03:59:31;99152.69;;;-0.85;70.21
77171;BME280;66144;50.020;14.422;2023-03-03T04:01:56;99163.09;;;-0.86;70.43
77171;BME280;66144;50.020;14.422;2023-03-03T04:04:22;99145.97;;;-0.86;70.12
77171;BME280;66144;50.020;14.422;2023-03-03T04:06:47;99151.72;;;-0.84;69.69
77171;BME280;66144;50.020;14.422;2023-03-03T04:09:13;99149.31;;;-0.85;70.10
77171;BME280;66144;50.020;14.422;2023-03-03T04:11:38;99151.09;;;-0.86;69.86
77171;BME280;66144;50.020;14.422;2023-03-03T04:14:04;99160.22;;;-0.83;70.11
77171;BME280;66144;50.020;14.422;2023-03-03T04:16:29;99164.88;;;-0.87;69.93
77171;BME280;66144;50.020;14.422;2023-03-03T04:18:55;99166.16;;;-0.83;70.28
77171;BME280;66144;50.020;14.422;2023-03-03T04:21:20;99168.56;;;-0.81;69.75
77171;BME280;66144;50.020;14.422;2023-03-03T04:23:46;99167.25;;;-0.85;69.89
77171;BME280;66144;50.020;14.422;2023-03-03T04:26:11;99170.31;;;-0.90;70.32
77171;BME280;66144;50.020;14.422;2023-03-03T04:28:36;99179.13;;;-0.84;70.24
77171;BME280;66144;50.020;14.422;2023-03-03T04:31:02;99172.22;;;-0.84;70.33
77171;BME280;66144;50.020;14.422;2023-03-03T04:33:28;99174.47;;;-0.89;69.70
77171;BME280;66144;50.020;14.422;2023-03-03T04:35:53;99178.16;;;-0.91;70.45
77171;BME280;66144;50.020;14.422;2023-03-03T04:38:19;99175.44;;;-0.90;70.13
77171;BME280;66144;50.020;14.422;2023-03-03T04:40:44;99172.56;;;-0.87;69.68
77171;BME280;66144;50.020;14.422;2023-03-03T04:43:11;99178.97;;;-0.91;69.90
77171;BME280;66144;50.020;14.422;2023-03-03T04:45:37;99179.28;;;-0.94;70.08
77171;BME280;66144;50.020;14.422;2023-03-03T04:48:02;99182.00;;;-0.95;70.06
77171;BME280;66144;50.020;14.422;2023-03-03T04:50:28;99181.56;;;-0.99;69.57
77171;BME280;66144;50.020;14.422;2023-03-03T04:52:53;99187.31;;;-1.05;70.00
77171;BME280;66144;50.020;14.422;2023-03-03T04:55:19;99178.50;;;-1.11;70.17
77171;BME280;66144;50.020;14.422;2023-03-03T04:57:44;99179.94;;;-1.08;70.43
77171;BME280;66144;50.020;14.422;2023-03-03T05:00:12;99185.69;;;-1.14;70.22
77171;BME280;66144;50.020;14.422;2023-03-03T05:02:38;99177.22;;;-1.15;70.30
77171;BME280;66144;50.020;14.422;2023-03-03T05:05:05;99181.88;;;-1.18;69.88
77171;BME280;66144;50.020;14.422;2023-03-03T05:07:31;99176.75;;;-1.18;69.67
77171;BME280;66144;50.020;14.422;2023-03-03T05:09:56;99171.31;;;-1.23;70.46
77171;BME280;66144;50.020;14.422;2023-03-03T05:12:21;99170.66;;;-1.25;69.98
77171;BME280;66144;50.020;14.422;2023-03-03T05:14:47;99177.72;;;-1.27;70.37
77171;BME280;66144;50.020;14.422;2023-03-03T05:17:12;99182.03;;;-1.28;70.02
77171;BME280;66144;50.020;14.422;2023-03-03T05:19:38;99177.53;;;-1.34;70.63
77171;BME280;66144;50.020;14.422;2023-03-03T05:22:04;99180.91;;;-1.33;70.05
77171;BME280;66144;50.020;14.422;2023-03-03T05:24:29;99187.31;;;-1.37;70.21
77171;BME280;66144;50.020;14.422;2023-03-03T05:26:55;99186.69;;;-1.40;70.80
77171;BME280;66144;50.020;14.422;2023-03-03T05:29:20;99188.59;;;-1.42;70.44
77171;BME280;66144;50.020;14.422;2023-03-03T05:31:45;99183.63;;;-1.43;70.21
77171;BME280;66144;50.020;14.422;2023-03-03T05:34:11;99187.31;;;-1.46;70.72
77171;BME280;66144;50.020;14.422;2023-03-03T05:36:36;99186.50;;;-1.46;70.47
77171;BME280;66144;50.020;14.422;2023-03-03T05:39:02;99192.25;;;-1.44;70.39
77171;BME280;66144;50.020;14.422;2023-03-03T05:41:27;99201.56;;;-1.43;70.64
77171;BME280;66144;50.020;14.422;2023-03-03T05:43:53;99209.41;;;-1.45;70.78
77171;BME280;66144;50.020;14.422;2023-03-03T05:46:18;99215.31;;;-1.44;71.04
77171;BME280;66144;50.020;14.422;2023-03-03T05:48:44;99214.66;;;-1.46;70.57
77171;BME280;66144;50.020;14.422;2023-03-03T05:51:09;99223.47;;;-1.49;70.36
77171;BME280;66144;50.020;14.422;2023-03-03T05:53:35;99232.75;;;-1.48;71.09
77171;BME280;66144;50.020;14.422;2023-03-03T05:56:00;99225.69;;;-1.54;70.89
77171;BME280;66144;50.020;14.422;2023-03-03T05:58:26;99230.81;;;-1.54;70.66
77171;BME280;66144;50.020;14.422;2023-03-03T06:00:51;99230.81;;;-1.54;71.44
77171;BME280;66144;50.020;14.422;2023-03-03T06:03:17;99236.44;;;-1.50;71.56
77171;BME280;66144;50.020;14.422;2023-03-03T06:05:42;99238.19;;;-1.51;71.50
77171;BME280;66144;50.020;14.422;2023-03-03T06:08:07;99250.38;;;-1.45;71.39
77171;BME280;66144;50.020;14.422;2023-03-03T06:10:33;99256.00;;;-1.41;70.90
77171;BME280;66144;50.020;14.422;2023-03-03T06:12:58;99251.66;;;-1.41;70.88
77171;BME280;66144;50.020;14.422;2023-03-03T06:15:25;99257.44;;;-1.38;71.06
77171;BME280;66144;50.020;14.422;2023-03-03T06:17:50;99265.78;;;-1.36;71.40
77171;BME280;66144;50.020;14.422;2023-03-03T06:20:15;99265.13;;;-1.30;71.85
77171;BME280;66144;50.020;14.422;2023-03-03T06:22:41;99269.94;;;-1.27;70.87
77171;BME280;66144;50.020;14.422;2023-03-03T06:25:07;99269.78;;;-1.26;71.29
77171;BME280;66144;50.020;14.422;2023-03-03T06:27:32;99278.44;;;-1.19;70.87
77171;BME280;66144;50.020;14.422;2023-03-03T06:29:58;99281.16;;;-1.20;71.35
77171;BME280;66144;50.020;14.422;2023-03-03T06:32:23;99286.94;;;-1.18;71.75
77171;BME280;66144;50.020;14.422;2023-03-03T06:34:48;99293.50;;;-1.08;71.03
77171;BME280;66144;50.020;14.422;2023-03-03T06:37:14;99292.09;;;-1.02;70.94
77171;BME280;66144;50.020;14.422;2023-03-03T06:39:39;99293.22;;;-0.96;70.79
77171;BME280;66144;50.020;14.422;2023-03-03T06:42:05;99295.13;;;-0.90;71.21
77171;BME280;66144;50.020;14.422;2023-03-03T06:44:31;99304.72;;;-0.76;70.64
77171;BME280;66144;50.020;14.422;2023-03-03T06:46:56;99309.41;;;-0.63;70.17
77171;BME280;66144;50.020;14.422;2023-03-03T06:49:22;99320.13;;;-0.52;69.56
77171;BME280;66144;50.020;14.422;2023-03-03T06:51:47;99310.97;;;-0.38;69.18
77171;BME280;66144;50.020;14.422;2023-03-03T06:54:17;99310.81;;;-0.28;68.77
77171;BME280;66144;50.020;14.422;2023-03-03T06:56:44;99316.38;;;-0.09;68.61
77171;BME280;66144;50.020;14.422;2023-03-03T06:59:15;99317.78;;;0.18;67.85
77171;BME280;66144;50.020;14.422;2023-03-03T07:01:42;99305.28;;;0.46;67.15
77171;BME280;66144;50.020;14.422;2023-03-03T07:06:45;99299.69;;;0.96;66.38
77171;BME280;66144;50.020;14.422;2023-03-03T07:09:19;99296.56;;;1.32;67.24
77171;BME280;66144;50.020;14.422;2023-03-03T07:11:45;99302.84;;;1.67;68.52
77171;BME280;66144;50.020;14.422;2023-03-03T07:14:17;99293.47;;;1.89;68.67
77171;BME280;66144;50.020;14.422;2023-03-03T07:16:43;99300.19;;;2.34;67.58
77171;BME280;66144;50.020;14.422;2023-03-03T07:19:32;99300.63;;;2.73;66.77
77171;BME280;66144;50.020;14.422;2023-03-03T07:22:00;99295.63;;;2.87;65.39
77171;BME280;66144;50.020;14.422;2023-03-03T07:24:30;99293.44;;;3.05;65.39
77171;BME280;66144;50.020;14.422;2023-03-03T07:27:05;99312.09;;;3.28;64.99
77171;BME280;66144;50.020;14.422;2023-03-03T07:29:36;99301.09;;;3.69;63.60
77171;BME280;66144;50.020;14.422;2023-03-03T07:32:18;99303.47;;;3.70;63.34
77171;BME280;66144;50.020;14.422;2023-03-03T07:34:48;99313.34;;;3.88;62.72
77171;BME280;66144;50.020;14.422;2023-03-03T07:39:46;99313.34;;;4.70;60.55
77171;BME280;66144;50.020;14.422;2023-03-03T07:42:39;99318.38;;;4.92;59.75
77171;BME280;66144;50.020;14.422;2023-03-03T07:45:38;99323.44;;;5.19;59.10
77171;BME280;66144;50.020;14.422;2023-03-03T07:50:39;99317.63;;;5.24;59.05
77171;BME280;66144;50.020;14.422;2023-03-03T07:53:13;99308.88;;;5.25;58.88
77171;BME280;66144;50.020;14.422;2023-03-03T07:55:41;99300.50;;;5.69;57.61
77171;BME280;66144;50.020;14.422;2023-03-03T08:03:09;99300.13;;;5.92;56.64
77171;BME280;66144;50.020;14.422;2023-03-03T08:05:41;99298.69;;;5.83;56.77
77171;BME280;66144;50.020;14.422;2023-03-03T08:08:28;99302.66;;;6.12;56.47
77171;BME280;66144;50.020;14.422;2023-03-03T08:10:56;99302.84;;;6.68;55.06
77171;BME280;66144;50.020;14.422;2023-03-03T08:16:36;99296.16;;;6.85;53.85
77171;BME280;66144;50.020;14.422;2023-03-03T08:18:43;99299.31;;;7.25;53.41
77171;BME280;66144;50.020;14.422;2023-03-03T08:21:30;99291.72;;;7.49;52.75
77171;BME280;66144;50.020;14.422;2023-03-03T08:23:57;99290.41;;;7.83;51.87
77171;BME280;66144;50.020;14.422;2023-03-03T08:26:24;99294.28;;;7.74;51.11
77171;BME280;66144;50.020;14.422;2023-03-03T08:28:50;99296.25;;;7.78;51.52
77171;BME280;66144;50.020;14.422;2023-03-03T08:31:16;99296.38;;;7.40;52.67
77171;BME280;66144;50.020;14.422;2023-03-03T08:33:42;99306.09;;;7.26;53.57
77171;BME280;66144;50.020;14.422;2023-03-03T08:36:09;99297.00;;;6.79;53.73
77171;BME280;66144;50.020;14.422;2023-03-03T08:38:34;99304.06;;;6.59;54.01
77171;BME280;66144;50.020;14.422;2023-03-03T08:41:00;99302.34;;;6.46;54.99
77171;BME280;66144;50.020;14.422;2023-03-03T08:43:26;99297.78;;;6.35;54.82
77171;BME280;66144;50.020;14.422;2023-03-03T08:45:58;99311.00;;;6.27;56.66
77171;BME280;66144;50.020;14.422;2023-03-03T08:48:25;99311.72;;;6.41;55.61
77171;BME280;66144;50.020;14.422;2023-03-03T08:50:51;99314.38;;;6.34;55.37
77171;BME280;66144;50.020;14.422;2023-03-03T08:53:18;99323.38;;;6.25;55.60
77171;BME280;66144;50.020;14.422;2023-03-03T08:55:43;99327.50;;;6.46;55.59
77171;BME280;66144;50.020;14.422;2023-03-03T08:58:09;99326.31;;;6.42;56.37
77171;BME280;66144;50.020;14.422;2023-03-03T09:00:35;99322.31;;;6.39;55.51
77171;BME280;66144;50.020;14.422;2023-03-03T09:03:00;99323.56;;;6.23;56.29
77171;BME280;66144;50.020;14.422;2023-03-03T09:05:26;99318.59;;;6.22;55.86
77171;BME280;66144;50.020;14.422;2023-03-03T09:07:52;99319.41;;;6.03;56.14
77171;BME280;66144;50.020;14.422;2023-03-03T09:10:22;99326.25;;;5.91;56.68
77171;BME280;66144;50.020;14.422;2023-03-03T09:12:52;99322.00;;;5.83;57.31
77171;BME280;66144;50.020;14.422;2023-03-03T09:15:29;99317.25;;;5.93;56.66
77171;BME280;66144;50.020;14.422;2023-03-03T09:17:58;99314.63;;;6.06;57.13
77171;BME280;66144;50.020;14.422;2023-03-03T09:20:30;99315.22;;;6.08;57.31
77171;BME280;66144;50.020;14.422;2023-03-03T09:22:57;99312.84;;;5.80;57.07
77171;BME280;66144;50.020;14.422;2023-03-03T09:25:36;99307.06;;;5.98;57.23
77171;BME280;66144;50.020;14.422;2023-03-03T09:28:02;99299.66;;;6.15;57.21
77171;BME280;66144;50.020;14.422;2023-03-03T09:30:35;99311.97;;;6.33;56.19
77171;BME280;66144;50.020;14.422;2023-03-03T09:33:01;99309.50;;;6.51;56.35
77171;BME280;66144;50.020;14.422;2023-03-03T09:35:37;99312.38;;;6.23;55.88
77171;BME280;66144;50.020;14.422;2023-03-03T09:38:27;99311.41;;;6.17;56.69
77171;BME280;66144;50.020;14.422;2023-03-03T09:43:47;99307.66;;;7.03;55.24
77171;BME280;66144;50.020;14.422;2023-03-03T09:46:39;99303.97;;;7.67;52.22
77171;BME280;66144;50.020;14.422;2023-03-03T10:03:08;99295.91;;;9.96;45.65
77171;BME280;66144;50.020;14.422;2023-03-03T10:16:43;99300.38;;;11.88;41.70
77171;BME280;66144;50.020;14.422;2023-03-03T10:19:35;99300.94;;;11.73;41.64
77171;BME280;66144;50.020;14.422;2023-03-03T10:25:07;99293.56;;;13.01;39.47
77171;BME280;66144;50.020;14.422;2023-03-03T10:27:53;99289.88;;;14.13;37.63
77171;BME280;66144;50.020;14.422;2023-03-03T10:30:31;99285.72;;;14.17;36.81
77171;BME280;66144;50.020;14.422;2023-03-03T10:33:07;99287.50;;;14.84;36.18
77171;BME280;66144;50.020;14.422;2023-03-03T10:38:19;99289.03;;;16.07;33.92
77171;BME280;66144;50.020;14.422;2023-03-03T10:46:14;99280.09;;;17.06;32.60
77171;BME280;66144;50.020;14.422;2023-03-03T10:49:13;99281.97;;;17.64;31.35
77171;BME280;66144;50.020;14.422;2023-03-03T11:00:23;99276.38;;;19.30;29.22
77171;BME280;66144;50.020;14.422;2023-03-03T11:08:13;99283.88;;;19.75;28.53
77171;BME280;66144;50.020;14.422;2023-03-03T11:11:14;99285.44;;;18.12;29.27
77171;BME280;66144;50.020;14.422;2023-03-03T11:21:46;99280.41;;;20.01;26.82
77171;BME280;66144;50.020;14.422;2023-03-03T11:26:56;99277.00;;;19.41;27.69
77171;BME280;66144;50.020;14.422;2023-03-03T11:29:55;99272.97;;;19.90;26.59
77171;BME280;66144;50.020;14.422;2023-03-03T11:32:42;99276.00;;;20.24;27.65
77171;BME280;66144;50.020;14.422;2023-03-03T11:35:24;99263.41;;;20.57;26.08
77171;BME280;66144;50.020;14.422;2023-03-03T11:43:19;99266.06;;;20.30;26.28
77171;BME280;66144;50.020;14.422;2023-03-03T11:45:50;99268.41;;;19.63;26.50
77171;BME280;66144;50.020;14.422;2023-03-03T11:48:51;99261.19;;;20.37;26.71
77171;BME280;66144;50.020;14.422;2023-03-03T11:51:22;99255.84;;;20.51;25.86
77171;BME280;66144;50.020;14.422;2023-03-03T11:57:26;99266.03;;;21.16;24.50
77171;BME280;66144;50.020;14.422;2023-03-03T12:10:27;99244.97;;;21.50;23.94
77171;BME280;66144;50.020;14.422;2023-03-03T12:13:02;99234.47;;;21.85;23.76
77171;BME280;66144;50.020;14.422;2023-03-03T12:15:40;99233.56;;;21.89;24.24
77171;BME280;66144;50.020;14.422;2023-03-03T12:37:00;99228.28;;;22.15;23.88
77171;BME280;66144;50.020;14.422;2023-03-03T12:39:46;99239.66;;;21.50;24.35
77171;BME280;66144;50.020;14.422;2023-03-03T12:42:29;99237.81;;;21.28;24.67
77171;BME280;66144;50.020;14.422;2023-03-03T12:47:39;99221.28;;;22.62;23.30
77171;BME280;66144;50.020;14.422;2023-03-03T12:56:01;99227.72;;;22.44;23.62
77171;BME280;66144;50.020;14.422;2023-03-03T12:58:32;99221.47;;;21.83;23.73
77171;BME280;66144;50.020;14.422;2023-03-03T13:01:20;99223.16;;;22.36;23.12
77171;BME280;66144;50.020;14.422;2023-03-03T13:20:05;99225.72;;;18.29;27.14
77171;BME280;66144;50.020;14.422;2023-03-03T13:22:40;99220.84;;;17.75;28.31
77171;BME280;66144;50.020;14.422;2023-03-03T13:25:29;99218.91;;;17.57;28.18
77171;BME280;66144;50.020;14.422;2023-03-03T13:28:06;99220.47;;;16.66;29.23
77171;BME280;66144;50.020;14.422;2023-03-03T13:30:39;99221.03;;;16.14;29.85
77171;BME280;66144;50.020;14.422;2023-03-03T13:33:22;99223.75;;;15.83;30.95
77171;BME280;66144;50.020;14.422;2023-03-03T13:38:31;99213.34;;;14.57;32.58
77171;BME280;66144;50.020;14.422;2023-03-03T13:41:23;99214.00;;;14.22;33.34
77171;BME280;66144;50.020;14.422;2023-03-03T13:44:04;99212.72;;;13.62;34.19
77171;BME280;66144;50.020;14.422;2023-03-03T13:46:42;99221.38;;;12.93;34.66
77171;BME280;66144;50.020;14.422;2023-03-03T13:51:49;99213.25;;;11.70;37.34
77171;BME280;66144;50.020;14.422;2023-03-03T14:05:16;99206.09;;;11.27;38.89
77171;BME280;66144;50.020;14.422;2023-03-03T14:07:51;99205.88;;;10.95;40.27
77171;BME280;66144;50.020;14.422;2023-03-03T14:10:31;99201.50;;;10.84;40.09
77171;BME280;66144;50.020;14.422;2023-03-03T14:13:28;99191.50;;;10.81;39.82
77171;BME280;66144;50.020;14.422;2023-03-03T14:19:02;99204.19;;;10.72;40.38
77171;BME280;66144;50.020;14.422;2023-03-03T14:24:19;99207.28;;;10.41;41.37
77171;BME280;66144;50.020;14.422;2023-03-03T14:26:50;99195.75;;;10.25;41.13
77171;BME280;66144;50.020;14.422;2023-03-03T14:29:36;99206.81;;;10.04;41.97
77171;BME280;66144;50.020;14.422;2023-03-03T14:32:20;99208.13;;;9.66;42.82
77171;BME280;66144;50.020;14.422;2023-03-03T14:34:56;99198.16;;;9.63;42.87
77171;BME280;66144;50.020;14.422;2023-03-03T14:37:26;99202.56;;;9.63;42.87
77171;BME280;66144;50.020;14.422;2023-03-03T14:42:51;99209.75;;;9.32;43.96
77171;BME280;66144;50.020;14.422;2023-03-03T14:47:56;99215.97;;;9.20;44.24
77171;BME280;66144;50.020;14.422;2023-03-03T14:50:30;99216.03;;;8.78;44.76
77171;BME280;66144;50.020;14.422;2023-03-03T14:53:41;99212.31;;;8.97;44.86
77171;BME280;66144;50.020;14.422;2023-03-03T14:56:35;99214.94;;;8.97;45.36
77171;BME280;66144;50.020;14.422;2023-03-03T15:01:38;99214.00;;;8.92;44.95
77171;BME280;66144;50.020;14.422;2023-03-03T15:04:22;99214.72;;;8.99;45.46
77171;BME280;66144;50.020;14.422;2023-03-03T15:06:50;99213.56;;;8.95;45.19
77171;BME280;66144;50.020;14.422;2023-03-03T15:09:32;99205.25;;;8.86;45.22
77171;BME280;66144;50.020;14.422;2023-03-03T15:17:39;99208.31;;;8.42;46.35
77171;BME280;66144;50.020;14.422;2023-03-03T15:20:38;99213.31;;;8.25;46.95
77171;BME280;66144;50.020;14.422;2023-03-03T15:34:19;99209.84;;;8.13;47.82
77171;BME280;66144;50.020;14.422;2023-03-03T15:36:53;99210.44;;;7.96;46.71
77171;BME280;66144;50.020;14.422;2023-03-03T15:44:53;99194.91;;;7.90;47.08
77171;BME280;66144;50.020;14.422;2023-03-03T15:55:56;99203.06;;;7.75;47.01
77171;BME280;66144;50.020;14.422;2023-03-03T16:03:57;99194.91;;;7.53;47.97
77171;BME280;66144;50.020;14.422;2023-03-03T16:17:47;99207.38;;;7.26;49.06
77171;BME280;66144;50.020;14.422;2023-03-03T16:20:28;99218.00;;;7.18;48.96
77171;BME280;66144;50.020;14.422;2023-03-03T16:23:15;99209.13;;;7.08;48.96
77171;BME280;66144;50.020;14.422;2023-03-03T16:28:31;99209.66;;;6.91;50.06
77171;BME280;66144;50.020;14.422;2023-03-03T16:31:18;99208.69;;;6.86;49.93
77171;BME280;66144;50.020;14.422;2023-03-03T16:33:50;99198.34;;;6.79;50.86
77171;BME280;66144;50.020;14.422;2023-03-03T16:38:55;99207.22;;;6.65;50.99
77171;BME280;66144;50.020;14.422;2023-03-03T16:41:54;99213.31;;;6.52;51.65
77171;BME280;66144;50.020;14.422;2023-03-03T16:52:42;99235.84;;;6.07;52.37
77171;BME280;66144;50.020;14.422;2023-03-03T16:55:29;99237.84;;;5.99;52.81
77171;BME280;66144;50.020;14.422;2023-03-03T17:00:51;99257.41;;;5.81;53.45
77171;BME280;66144;50.020;14.422;2023-03-03T17:03:52;99257.84;;;5.72;53.88
77171;BME280;66144;50.020;14.422;2023-03-03T17:07:11;99263.44;;;5.62;54.15
77171;BME280;66144;50.020;14.422;2023-03-03T17:17:35;99261.25;;;5.26;55.85
77171;BME280;66144;50.020;14.422;2023-03-03T17:20:10;99260.47;;;5.19;56.17
77171;BME280;66144;50.020;14.422;2023-03-03T17:22:51;99264.84;;;4.99;56.97